createdAt,value
2022-12-15T00:02:34.972Z,99984.91
2022-12-15T00:05:20.483Z,99973.56
2022-12-15T00:08:05.983Z,99977.13
2022-12-15T00:10:51.606Z,99979.78
2022-12-15T00:13:37.099Z,99968.47
2022-12-15T00:16:25.299Z,99975.47
2022-12-15T00:19:11.175Z,99986.94
2022-12-15T00:21:56.900Z,99998.31
2022-12-15T00:24:42.451Z,99994.84
2022-12-15T00:27:28.141Z,99980.88
2022-12-15T00:30:13.676Z,99973.88
2022-12-15T00:33:00.643Z,99990.50
2022-12-15T00:35:46.290Z,99983.53
2022-12-15T00:38:33.330Z,99978.25
2022-12-15T00:41:01.412Z,99982.63
2022-12-15T00:43:29.933Z,99975.63
2022-12-15T00:46:15.829Z,99981.72
2022-12-15T00:48:45.298Z,99987.81
2022-12-15T00:51:13.192Z,99984.31
2022-12-15T00:53:58.990Z,99989.50
2022-12-15T00:56:44.440Z,99994.75
2022-12-15T00:59:30.582Z,100000.00
2022-12-15T01:02:16.218Z,100005.22
2022-12-15T01:05:03.424Z,99999.09
2022-12-15T01:07:49.815Z,99991.16
2022-12-15T01:10:35.899Z,99991.13
2022-12-15T01:13:22.641Z,99997.22
2022-12-15T01:16:08.426Z,100005.13
2022-12-15T01:18:54.238Z,99998.97
2022-12-15T01:21:25.566Z,100005.09
2022-12-15T01:23:54.503Z,99992.81
2022-12-15T01:26:22.560Z,99977.03
2022-12-15T01:28:50.705Z,99989.28
2022-12-15T01:31:18.825Z,99997.16
2022-12-15T01:33:47.369Z,99979.66
2022-12-15T01:36:15.614Z,99970.03
2022-12-15T01:38:49.348Z,99979.66
2022-12-15T01:41:19.416Z,99973.53
2022-12-15T01:43:47.521Z,99971.75
2022-12-15T01:46:20.289Z,99974.44
2022-12-15T01:48:50.276Z,99977.97
2022-12-15T01:51:23.760Z,99988.47
2022-12-15T01:53:59.010Z,99987.56
2022-12-15T01:56:32.555Z,99983.13
2022-12-15T01:59:05.886Z,99990.13
2022-12-15T02:01:34.105Z,99999.75
2022-12-15T02:04:02.540Z,100005.00
2022-12-15T02:06:30.841Z,99997.13
2022-12-15T02:09:01.842Z,99995.38
2022-12-15T02:11:45.920Z,100005.91
2022-12-15T02:14:19.810Z,99996.28
2022-12-15T02:16:59.570Z,99993.66
2022-12-15T02:20:06.043Z,99998.03
2022-12-15T02:22:45.100Z,99996.28
2022-12-15T02:25:31.219Z,100000.69
2022-12-15T02:28:03.164Z,100008.53
2022-12-15T02:30:41.038Z,100011.19
2022-12-15T02:33:16.111Z,100016.44
2022-12-15T02:35:54.280Z,100016.44
2022-12-15T02:38:34.448Z,100019.03
2022-12-15T02:41:05.247Z,100020.78
2022-12-15T02:43:38.814Z,100008.53
2022-12-15T02:46:20.340Z,100005.00
2022-12-15T02:48:56.315Z,100006.72
2022-12-15T02:51:35.554Z,100016.38
2022-12-15T02:54:38.713Z,100015.47
2022-12-15T02:57:11.323Z,100025.94
2022-12-15T02:59:44.007Z,100018.88
2022-12-15T03:02:14.470Z,100026.72
2022-12-15T03:04:45.496Z,100034.53
2022-12-15T03:07:14.890Z,100020.47
2022-12-15T03:09:43.345Z,100019.53
2022-12-15T03:12:11.562Z,100018.66
2022-12-15T03:14:39.681Z,100027.44
2022-12-15T03:17:07.735Z,100030.97
2022-12-15T03:19:37.229Z,100026.59
2022-12-15T03:22:05.343Z,100035.41
2022-12-15T03:24:33.407Z,100033.66
2022-12-15T03:27:01.476Z,100029.31
2022-12-15T03:29:29.632Z,100034.53
2022-12-15T03:31:57.856Z,100026.63
2022-12-15T03:34:25.978Z,100025.69
2022-12-15T03:36:55.522Z,100030.16
2022-12-15T03:39:23.610Z,100029.31
2022-12-15T03:41:51.675Z,100030.22
2022-12-15T03:44:19.800Z,100027.59
2022-12-15T03:46:47.884Z,100027.59
2022-12-15T03:49:15.965Z,100027.63
2022-12-15T03:51:45.040Z,100025.06
2022-12-15T03:54:15.419Z,100033.84
2022-12-15T03:56:43.511Z,100037.41
2022-12-15T03:59:11.565Z,100038.34
2022-12-15T04:01:46.242Z,100036.63
2022-12-15T04:04:14.443Z,100044.53
2022-12-15T04:06:42.507Z,100043.72
2022-12-15T04:09:10.618Z,100035.88
2022-12-15T04:11:40.047Z,100042.91
2022-12-15T04:14:08.105Z,100032.44
2022-12-15T04:16:36.208Z,100030.72
2022-12-15T04:19:21.515Z,100033.38
2022-12-15T04:21:49.571Z,100044.78
2022-12-15T04:24:35.138Z,100041.28
2022-12-15T04:27:22.019Z,100047.38
2022-12-15T04:30:07.647Z,100048.25
2022-12-15T04:32:53.260Z,100054.41
2022-12-15T04:35:38.910Z,100049.16
2022-12-15T04:38:24.378Z,100050.03
2022-12-15T04:41:09.955Z,100045.66
2022-12-15T04:43:57.037Z,100051.78
2022-12-15T04:46:42.641Z,100049.16
2022-12-15T04:49:28.136Z,100049.19
2022-12-15T04:52:13.603Z,100045.72
2022-12-15T04:54:59.182Z,100050.09
2022-12-15T04:57:44.793Z,100047.47
2022-12-15T05:00:32.562Z,100041.38
2022-12-15T05:03:23.045Z,100064.16
2022-12-15T05:06:08.639Z,100060.66
2022-12-15T05:08:54.234Z,100063.28
2022-12-15T05:11:39.803Z,100057.19
2022-12-15T05:14:25.567Z,100067.72
2022-12-15T05:17:13.391Z,100066.88
2022-12-15T05:19:58.807Z,100068.63
2022-12-15T05:22:44.522Z,100073.00
2022-12-15T05:25:30.245Z,100080.03
2022-12-15T05:28:15.954Z,100089.72
2022-12-15T05:31:01.623Z,100083.63
2022-12-15T05:33:31.306Z,100081.88
2022-12-15T05:35:59.621Z,100082.75
2022-12-15T05:38:27.683Z,100095.88
2022-12-15T05:40:58.545Z,100099.38
2022-12-15T05:43:26.922Z,100100.28
2022-12-15T05:45:55.154Z,100105.53
2022-12-15T05:48:23.444Z,100109.03
2022-12-15T05:50:52.849Z,100116.94
2022-12-15T05:53:20.892Z,100122.19
2022-12-15T05:55:48.944Z,100135.31
2022-12-15T05:58:17.014Z,100117.84
2022-12-15T06:00:45.281Z,100133.59
2022-12-15T06:03:13.483Z,100135.38
2022-12-15T06:05:41.555Z,100140.63
2022-12-15T06:08:11.001Z,100150.25
2022-12-15T06:10:39.101Z,100147.63
2022-12-15T06:13:07.154Z,100152.88
2022-12-15T06:15:35.240Z,100152.88
2022-12-15T06:18:03.382Z,100151.16
2022-12-15T06:20:31.467Z,100159.00
2022-12-15T06:22:59.524Z,100158.13
2022-12-15T06:25:29.066Z,100159.91
2022-12-15T06:28:01.686Z,100159.91
2022-12-15T06:30:30.267Z,100158.16
2022-12-15T06:32:58.351Z,100171.28
2022-12-15T06:35:26.412Z,100171.28
2022-12-15T06:37:54.490Z,100173.06
2022-12-15T06:40:22.619Z,100180.03
2022-12-15T06:42:52.033Z,100172.19
2022-12-15T06:45:20.161Z,100181.78
2022-12-15T06:47:49.587Z,100183.53
2022-12-15T06:50:17.823Z,100186.19
2022-12-15T06:52:45.882Z,100198.44
2022-12-15T06:55:14.178Z,100190.59
2022-12-15T06:57:42.218Z,100194.94
2022-12-15T07:00:12.735Z,100197.59
2022-12-15T07:02:42.699Z,100197.59
2022-12-15T07:05:10.948Z,100194.13
2022-12-15T07:07:39.014Z,100205.50
2022-12-15T07:10:07.700Z,100215.09
2022-12-15T07:12:35.764Z,100209.00
2022-12-15T07:15:04.100Z,100229.94
2022-12-15T07:17:33.519Z,100219.44
2022-12-15T07:20:01.573Z,100223.81
2022-12-15T07:22:29.788Z,100231.69
2022-12-15T07:24:58.058Z,100230.78
2022-12-15T07:27:26.267Z,100236.00
2022-12-15T07:29:54.306Z,100245.63
2022-12-15T07:32:22.407Z,100236.84
2022-12-15T07:34:51.963Z,100242.94
2022-12-15T07:37:20.105Z,100249.91
2022-12-15T07:39:48.977Z,100244.63
2022-12-15T07:42:17.028Z,100248.97
2022-12-15T07:44:45.155Z,100242.75
2022-12-15T07:47:18.157Z,100254.97
2022-12-15T07:49:46.431Z,100254.91
2022-12-15T07:52:16.138Z,100267.13
2022-12-15T07:54:45.319Z,100262.72
2022-12-15T07:57:13.382Z,100273.16
2022-12-15T07:59:41.464Z,100275.75
2022-12-15T08:02:11.797Z,100273.06
2022-12-15T08:04:40.253Z,100272.13
2022-12-15T08:07:09.014Z,100274.72
2022-12-15T08:09:38.824Z,100281.63
2022-12-15T08:12:07.322Z,100280.72
2022-12-15T08:14:35.409Z,100278.91
2022-12-15T08:17:03.585Z,100280.59
2022-12-15T08:19:31.871Z,100287.56
2022-12-15T08:21:59.938Z,100284.84
2022-12-15T08:24:28.031Z,100285.69
2022-12-15T08:26:57.662Z,100292.63
2022-12-15T08:29:50.236Z,100296.09
2022-12-15T08:32:14.359Z,100293.41
2022-12-15T08:34:42.625Z,100305.63
2022-12-15T08:37:10.966Z,100303.78
2022-12-15T08:39:39.044Z,100308.13
2022-12-15T08:42:08.592Z,100310.66
2022-12-15T08:44:36.820Z,100317.63
2022-12-15T08:47:04.919Z,100321.94
2022-12-15T08:49:32.968Z,100321.00
2022-12-15T08:52:01.123Z,100316.53
2022-12-15T08:54:29.204Z,100318.22
2022-12-15T08:56:57.275Z,100310.28
2022-12-15T08:59:27.095Z,100318.09
2022-12-15T09:01:55.294Z,100322.41
2022-12-15T09:04:24.048Z,100326.69
2022-12-15T09:06:52.194Z,100326.63
2022-12-15T09:09:21.675Z,100327.41
2022-12-15T09:11:49.899Z,100319.44
2022-12-15T09:14:22.801Z,100323.75
2022-12-15T09:16:56.755Z,100328.00
2022-12-15T09:19:25.299Z,100335.88
2022-12-15T09:21:53.375Z,100333.22
2022-12-15T09:24:29.177Z,100341.94
2022-12-15T09:27:03.141Z,100335.66
2022-12-15T09:29:31.232Z,100336.50
2022-12-15T09:32:00.767Z,100330.25
2022-12-15T09:34:29.306Z,100325.81
2022-12-15T09:36:57.841Z,100325.72
2022-12-15T09:39:25.910Z,100322.16
2022-12-15T09:41:55.827Z,100335.25
2022-12-15T09:44:26.542Z,100338.69
2022-12-15T09:47:06.844Z,100346.50
2022-12-15T09:49:47.476Z,100342.84
2022-12-15T09:52:18.340Z,100345.44
2022-12-15T09:54:46.634Z,100345.31
2022-12-15T09:57:22.590Z,100344.34
2022-12-15T10:00:07.106Z,100337.22
2022-12-15T10:03:19.794Z,100339.72
2022-12-15T10:06:16.160Z,100346.59
2022-12-15T10:08:48.622Z,100344.78
2022-12-15T10:11:29.622Z,100352.59
2022-12-15T10:14:03.628Z,100355.09
2022-12-15T10:16:36.302Z,100357.69
2022-12-15T10:19:10.390Z,100361.09
2022-12-15T10:21:39.872Z,100364.53
2022-12-15T10:24:37.573Z,100359.19
2022-12-15T10:27:21.151Z,100365.28
2022-12-15T10:29:57.808Z,100371.34
2022-12-15T10:32:35.498Z,100361.50
2022-12-15T10:35:13.347Z,100353.38
2022-12-15T10:37:43.365Z,100357.59
2022-12-15T10:40:18.997Z,100351.31
2022-12-15T10:42:49.611Z,100353.81
2022-12-15T10:45:35.901Z,100349.34
2022-12-15T10:48:06.575Z,100349.28
2022-12-15T10:50:35.301Z,100342.22
2022-12-15T10:53:08.120Z,100343.91
2022-12-15T10:55:39.502Z,100357.88
2022-12-15T10:58:17.422Z,100349.91
2022-12-15T11:00:46.749Z,100364.88
2022-12-15T11:03:24.216Z,100370.06
2022-12-15T11:05:53.345Z,100359.47
2022-12-15T11:08:24.971Z,100366.41
2022-12-15T11:11:11.721Z,100368.91
2022-12-15T11:13:40.512Z,100373.25
2022-12-15T11:16:15.453Z,100375.81
2022-12-15T11:18:46.123Z,100366.84
2022-12-15T11:21:23.363Z,100366.78
2022-12-15T11:24:07.244Z,100365.00
2022-12-15T11:26:47.107Z,100364.06
2022-12-15T11:29:25.740Z,100368.34
2022-12-15T11:31:54.792Z,100385.13
2022-12-15T11:34:26.876Z,100382.50
2022-12-15T11:37:32.286Z,100385.09
2022-12-15T11:40:20.658Z,100389.53
2022-12-15T11:43:17.145Z,100392.16
2022-12-15T11:45:53.194Z,100392.09
2022-12-15T11:48:23.608Z,100385.03
2022-12-15T11:50:55.052Z,100386.84
2022-12-15T11:53:37.959Z,100391.25
2022-12-15T11:56:18.093Z,100389.47
2022-12-15T11:58:59.698Z,100396.50
2022-12-15T12:01:57.108Z,100395.59
2022-12-15T12:04:33.306Z,100400.84
2022-12-15T12:07:10.846Z,100396.41
2022-12-15T12:09:44.753Z,100407.78
2022-12-15T12:12:26.297Z,100397.97
2022-12-15T12:15:08.995Z,100397.91
2022-12-15T12:17:43.226Z,100388.13
2022-12-15T12:20:18.327Z,100391.66
2022-12-15T12:22:51.847Z,100389.94
2022-12-15T12:25:22.863Z,100388.34
2022-12-15T12:27:56.032Z,100401.72
2022-12-15T12:30:26.078Z,100405.41
2022-12-15T12:32:59.501Z,100415.19
2022-12-15T12:35:33.350Z,100417.91
2022-12-15T12:38:04.436Z,100418.03
2022-12-15T12:40:45.457Z,100426.84
2022-12-15T12:43:23.291Z,100418.91
2022-12-15T12:45:54.873Z,100408.31
2022-12-15T12:48:28.933Z,100409.16
2022-12-15T12:51:13.695Z,100409.06
2022-12-15T12:53:41.932Z,100409.91
2022-12-15T12:56:30.185Z,100408.91
2022-12-15T12:58:59.683Z,100411.47
2022-12-15T13:01:31.210Z,100417.56
2022-12-15T13:04:12.871Z,100414.00
2022-12-15T13:07:11.529Z,100416.66
2022-12-15T13:09:42.868Z,100407.81
2022-12-15T13:12:50.691Z,100409.56
2022-12-15T13:15:32.472Z,100407.72
2022-12-15T13:18:06.476Z,100403.19
2022-12-15T13:20:36.338Z,100418.09
2022-12-15T13:23:50.491Z,100412.75
2022-12-15T13:26:20.783Z,100410.06
2022-12-15T13:28:57.840Z,100408.22
2022-12-15T13:31:34.494Z,100411.66
2022-12-15T13:34:21.421Z,100410.75
2022-12-15T13:37:02.751Z,100403.72
2022-12-15T13:39:55.194Z,100408.19
2022-12-15T13:42:35.949Z,100407.38
2022-12-15T13:45:35.876Z,100419.72
2022-12-15T13:48:15.244Z,100419.81
2022-12-15T13:50:51.155Z,100419.97
2022-12-15T13:53:23.342Z,100417.44
2022-12-15T13:56:00.204Z,100430.69
2022-12-15T13:58:29.473Z,100432.50
2022-12-15T14:00:59.207Z,100436.09
2022-12-15T14:03:28.922Z,100427.41
2022-12-15T14:06:00.233Z,100430.97
2022-12-15T14:08:30.513Z,100430.97
2022-12-15T14:10:59.995Z,100436.25
2022-12-15T14:13:31.388Z,100442.44
2022-12-15T14:16:02.987Z,100436.25
2022-12-15T14:18:34.715Z,100438.03
2022-12-15T14:21:08.471Z,100443.31
2022-12-15T14:23:57.748Z,100442.41
2022-12-15T14:26:31.671Z,100445.88
2022-12-15T14:29:02.415Z,100446.72
2022-12-15T14:31:31.232Z,100439.69
2022-12-15T14:34:03.978Z,100445.88
2022-12-15T14:36:32.325Z,100453.81
2022-12-15T14:39:02.986Z,100452.00
2022-12-15T14:41:33.060Z,100451.97
2022-12-15T14:44:31.604Z,100454.69
2022-12-15T14:46:51.975Z,100453.03
2022-12-15T14:49:27.360Z,100453.91
2022-12-15T14:51:59.633Z,100458.31
2022-12-15T14:54:35.560Z,100462.78
2022-12-15T14:57:13.913Z,100465.50
2022-12-15T14:59:43.341Z,100462.91
2022-12-15T15:02:15.193Z,100466.47
2022-12-15T15:04:56.186Z,100467.38
2022-12-15T15:07:25.298Z,100467.41
2022-12-15T15:09:56.534Z,100466.53
2022-12-15T15:12:26.175Z,100478.00
2022-12-15T15:14:59.779Z,100471.81
2022-12-15T15:17:32.449Z,100474.50
2022-12-15T15:20:03.726Z,100484.16
2022-12-15T15:22:37.520Z,100483.31
2022-12-15T15:25:27.041Z,100482.41
2022-12-15T15:28:03.973Z,100489.47
2022-12-15T15:30:42.734Z,100489.47
2022-12-15T15:33:12.812Z,100484.16
2022-12-15T15:35:43.673Z,100488.56
2022-12-15T15:38:19.981Z,100490.31
2022-12-15T15:40:52.191Z,100492.94
2022-12-15T15:43:20.396Z,100485.88
2022-12-15T15:45:49.457Z,100491.13
2022-12-15T15:48:22.419Z,100499.91
2022-12-15T15:50:51.993Z,100487.50
2022-12-15T15:53:21.994Z,100489.25
2022-12-15T15:55:51.588Z,100492.72
2022-12-15T15:58:19.735Z,100495.34
2022-12-15T16:00:47.858Z,100493.56
2022-12-15T16:03:16.617Z,100505.88
2022-12-15T16:05:45.007Z,100495.28
2022-12-15T16:08:17.867Z,100498.78
2022-12-15T16:10:47.924Z,100494.31
2022-12-15T16:13:23.952Z,100493.44
2022-12-15T16:15:54.171Z,100501.38
2022-12-15T16:18:22.499Z,100489.03
2022-12-15T16:20:52.786Z,100496.94
2022-12-15T16:23:25.735Z,100490.75
2022-12-15T16:25:55.158Z,100494.28
2022-12-15T16:28:25.754Z,100495.16
2022-12-15T16:30:53.901Z,100498.69
2022-12-15T16:33:22.337Z,100505.75
2022-12-15T16:35:51.291Z,100505.75
2022-12-15T16:38:25.760Z,100502.19
2022-12-15T16:40:55.470Z,100507.44
2022-12-15T16:43:26.891Z,100513.59
2022-12-15T16:45:57.352Z,100509.19
2022-12-15T16:48:25.609Z,100508.28
2022-12-15T16:50:56.228Z,100511.78
2022-12-15T16:53:27.724Z,100521.50
2022-12-15T16:55:57.708Z,100521.50
2022-12-15T16:58:26.764Z,100527.66
2022-12-15T17:00:55.003Z,100535.59
2022-12-15T17:03:25.741Z,100532.97
2022-12-15T17:05:55.652Z,100536.44
2022-12-15T17:08:27.270Z,100537.28
2022-12-15T17:10:55.896Z,100538.09
2022-12-15T17:13:36.568Z,100535.38
2022-12-15T17:16:08.442Z,100539.78
2022-12-15T17:18:36.680Z,100539.75
2022-12-15T17:21:07.643Z,100539.69
2022-12-15T17:23:37.621Z,100543.19
2022-12-15T17:26:25.706Z,100546.75
2022-12-15T17:28:56.227Z,100549.34
2022-12-15T17:31:31.511Z,100546.69
2022-12-15T17:34:03.794Z,100553.81
2022-12-15T17:36:32.245Z,100553.81
2022-12-15T17:39:02.640Z,100553.84
2022-12-15T17:44:32.993Z,100565.34
2022-12-15T17:47:03.171Z,100571.47
2022-12-15T17:49:35.642Z,100571.44
2022-12-15T17:52:07.544Z,100576.72
2022-12-15T17:54:37.327Z,100584.69
2022-12-15T17:57:05.598Z,100589.94
2022-12-15T17:59:33.762Z,100591.72
2022-12-15T18:02:02.076Z,100599.66
2022-12-15T18:04:31.395Z,100602.22
2022-12-15T18:07:02.242Z,100592.50
2022-12-15T18:09:30.982Z,100600.44
2022-12-15T18:12:00.617Z,100595.13
2022-12-15T18:14:29.165Z,100600.38
2022-12-15T18:16:57.422Z,100599.44
2022-12-15T18:19:28.973Z,100591.41
2022-12-15T18:21:59.889Z,100595.78
2022-12-15T18:24:28.148Z,100603.69
2022-12-15T18:26:56.333Z,100610.72
2022-12-15T18:29:26.094Z,100610.69
2022-12-15T18:31:54.311Z,100605.38
2022-12-15T18:34:22.933Z,100614.16
2022-12-15T18:36:51.647Z,100611.47
2022-12-15T18:39:23.456Z,100615.88
2022-12-15T18:41:52.489Z,100619.38
2022-12-15T18:44:23.526Z,100624.66
2022-12-15T18:46:55.004Z,100625.50
2022-12-15T18:49:23.837Z,100621.97
2022-12-15T18:51:52.278Z,100622.91
2022-12-15T18:54:22.868Z,100629.09
2022-12-15T18:56:51.582Z,100624.69
2022-12-15T18:59:20.495Z,100632.66
2022-12-15T19:01:49.781Z,100638.88
2022-12-15T19:04:19.463Z,100639.78
2022-12-15T19:06:47.682Z,100646.81
2022-12-15T19:09:18.567Z,100651.25
2022-12-15T19:12:17.688Z,100651.25
2022-12-15T19:14:47.141Z,100652.13
2022-12-15T19:17:33.816Z,100654.75
2022-12-15T19:20:21.698Z,100659.19
2022-12-15T19:22:50.232Z,100663.63
2022-12-15T19:25:25.783Z,100666.25
2022-12-15T19:27:58.942Z,100675.94
2022-12-15T19:30:28.885Z,100669.78
2022-12-15T19:32:57.168Z,100675.94
2022-12-15T19:35:28.226Z,100674.19
2022-12-15T19:37:57.797Z,100682.09
2022-12-15T19:40:30.219Z,100687.41
2022-12-15T19:42:59.299Z,100686.53
2022-12-15T19:45:29.188Z,100685.63
2022-12-15T19:47:57.629Z,100698.84
2022-12-15T19:50:29.379Z,100704.19
2022-12-15T19:52:59.737Z,100703.28
2022-12-15T19:55:30.423Z,100707.66
2022-12-15T19:57:58.481Z,100709.41
2022-12-15T20:00:27.331Z,100710.28
2022-12-15T20:02:56.652Z,100714.69
2022-12-15T20:05:26.070Z,100713.81
2022-12-15T20:07:55.843Z,100710.28
2022-12-15T20:10:31.868Z,100721.75
2022-12-15T20:13:01.157Z,100719.97
2022-12-15T20:15:29.442Z,100717.31
2022-12-15T20:17:57.975Z,100717.31
2022-12-15T20:20:27.949Z,100720.84
2022-12-15T20:23:02.392Z,100720.88
2022-12-15T20:25:33.437Z,100726.19
2022-12-15T20:28:02.239Z,100722.63
2022-12-15T20:30:35.139Z,100729.69
2022-12-15T20:33:04.859Z,100726.19
2022-12-15T20:35:34.762Z,100737.63
2022-12-15T20:38:17.759Z,100734.09
2022-12-15T20:40:45.871Z,100737.59
2022-12-15T20:43:17.186Z,100736.69
2022-12-15T20:45:46.212Z,100740.25
2022-12-15T20:48:15.502Z,100742.94
2022-12-15T20:50:45.424Z,100739.41
2022-12-15T20:53:20.075Z,100753.53
2022-12-15T20:55:49.177Z,100738.56
2022-12-15T20:58:17.907Z,100735.00
2022-12-15T21:00:47.072Z,100733.22
2022-12-15T21:03:21.547Z,100741.16
2022-12-15T21:05:50.493Z,100749.13
2022-12-15T21:08:23.087Z,100755.31
2022-12-15T21:10:52.303Z,100754.44
2022-12-15T21:13:25.110Z,100759.72
2022-12-15T21:15:53.731Z,100767.66
2022-12-15T21:21:17.565Z,100767.63
2022-12-15T21:23:47.055Z,100762.28
2022-12-15T21:26:16.845Z,100764.03
2022-12-15T21:28:44.967Z,100764.00
2022-12-15T21:31:13.126Z,100777.22
2022-12-15T21:33:41.301Z,100770.13
2022-12-15T21:36:13.422Z,100771.97
2022-12-15T21:38:42.720Z,100764.94
2022-12-15T21:41:15.546Z,100766.69
2022-12-15T21:43:43.977Z,100769.38
2022-12-15T21:46:15.942Z,100778.19
2022-12-15T21:49:02.300Z,100776.41
2022-12-15T21:51:34.081Z,100779.94
2022-12-15T21:54:02.435Z,100780.81
2022-12-15T21:56:31.920Z,100779.97
2022-12-15T21:59:00.615Z,100789.69
2022-12-15T22:01:30.123Z,100799.38
2022-12-15T22:03:59.859Z,100802.91
2022-12-15T22:06:29.555Z,100795.81
2022-12-15T22:08:58.707Z,100797.56
2022-12-15T22:11:28.601Z,100799.31
2022-12-15T22:13:59.826Z,100801.97
2022-12-15T22:16:28.022Z,100801.09
2022-12-15T22:18:57.342Z,100800.22
2022-12-15T22:21:26.369Z,100802.84
2022-12-15T22:23:54.462Z,100806.38
2022-12-15T22:26:25.123Z,100814.31
2022-12-15T22:28:54.853Z,100816.06
2022-12-15T22:31:24.366Z,100808.09
2022-12-15T22:33:52.849Z,100812.47
2022-12-15T22:36:23.256Z,100810.69
2022-12-15T22:38:51.432Z,100807.16
2022-12-15T22:41:21.772Z,100812.50
2022-12-15T22:43:52.607Z,100809.84
2022-12-15T22:46:22.560Z,100813.38
2022-12-15T22:48:54.690Z,100800.09
2022-12-15T22:51:23.104Z,100802.72
2022-12-15T22:53:51.748Z,100808.03
2022-12-15T22:56:26.143Z,100807.13
2022-12-15T22:58:57.073Z,100815.09
2022-12-15T23:01:28.938Z,100812.44
2022-12-15T23:03:58.523Z,100806.25
2022-12-15T23:06:28.187Z,100796.53
2022-12-15T23:08:56.521Z,100798.28
2022-12-15T23:11:39.874Z,100799.19
2022-12-15T23:14:09.582Z,100793.91
2022-12-15T23:16:37.275Z,100801.06
2022-12-15T23:19:08.743Z,100794.00
2022-12-15T23:21:37.293Z,100798.47
2022-12-15T23:24:05.590Z,100794.09
2022-12-15T23:26:33.976Z,100792.38
2022-12-15T23:29:02.094Z,100795.06
2022-12-15T23:31:30.385Z,100802.16
2022-12-15T23:33:58.540Z,100803.09
2022-12-15T23:36:28.020Z,100805.81
2022-12-15T23:38:57.952Z,100815.56
2022-12-15T23:41:26.019Z,100820.88
2022-12-15T23:43:54.147Z,100819.97
2022-12-15T23:46:22.368Z,100818.22
2022-12-15T23:48:50.527Z,100819.94
2022-12-15T23:51:21.083Z,100826.09
2022-12-15T23:53:50.571Z,100827.88
2022-12-15T23:56:21.972Z,100836.69
2022-12-15T23:58:56.031Z,100834.03
